Meteorología y climatología de Navarra
Datos de la estación - Meteo Navarra

Estación de Carrascal GN

Altitud 568 m.


Datos desde el 15/01/2020 hasta el 16/01/2020 en horario solar
Los datos son PROVISIONALES

Anterior Página 1 de 1 Siguiente Descargar: Formato para Excel 2000 o superior   Formato csv   Formato para OpenOffice Calc
Fecha Temperatura Humedad relativa Radiación global Insolación Precipitación Vel. viento 10 m Vel. viento 10 m Dir. viento 10 m
ºC % W/m² s l/m² m/s km/h º
15/01/2020 0:00 6.2 63 0.0 0 0.0 8.1 29.1 162
15/01/2020 0:10 6.0 63 0.0 0 0.0 6.1 22.0 169
15/01/2020 0:20 5.8 64 0.0 0 0.0 7.2 25.8 165
15/01/2020 0:30 5.9 64 0.0 0 0.0 7.4 26.6 163
15/01/2020 0:40 6.1 63 0.0 0 0.0 6.8 24.4 154
15/01/2020 0:50 5.8 64 0.0 0 0.0 6.4 22.9 168
15/01/2020 1:00 5.9 64 0.0 0 0.0 7.2 25.9 154
15/01/2020 1:10 6.1 63 0.0 0 0.0 7.2 25.8 171
15/01/2020 1:20 2.4 77 0.0 0 0.0 6.6 23.6 231
15/01/2020 1:30 1.2 84 0.0 0 0.0 5.9 21.4 226
15/01/2020 1:40 0.9 87 0.0 0 0.0 5.5 19.9 211
15/01/2020 1:50 4.0 75 0.0 0 0.0 7.5 26.9 178
15/01/2020 2:00 5.0 69 0.0 0 0.0 7.7 27.8 173
15/01/2020 2:10 5.4 68 0.0 0 0.0 10.0 35.9 152
15/01/2020 2:20 5.6 66 0.0 0 0.0 9.6 34.4 146
15/01/2020 2:30 5.6 66 0.0 0 0.0 10.1 36.2 153
15/01/2020 2:40 5.8 65 0.0 0 0.0 9.2 33.1 159
15/01/2020 2:50 5.8 65 0.0 0 0.0 8.2 29.4 166
15/01/2020 3:00 5.7 66 0.0 0 0.0 7.0 25.3 177
15/01/2020 3:10 5.6 67 0.0 0 0.0 9.2 33.3 162
15/01/2020 3:20 5.4 67 0.0 0 0.0 9.4 33.9 161
15/01/2020 3:30 5.4 67 0.0 0 0.0 10.3 37.0 155
15/01/2020 3:40 5.3 68 0.0 0 0.0 10.7 38.4 159
15/01/2020 3:50 5.4 68 0.0 0 0.0 10.0 36.0 157
15/01/2020 4:00 5.3 68 0.0 0 0.0 10.4 37.3 153
15/01/2020 4:10 5.4 68 0.0 0 0.0 8.4 30.2 160
15/01/2020 4:20 5.2 68 0.0 0 0.0 7.3 26.4 158
15/01/2020 4:30 5.4 67 0.0 0 0.0 8.4 30.3 153
15/01/2020 4:40 5.5 67 0.0 0 0.0 7.4 26.5 150
15/01/2020 4:50 5.2 68 0.0 0 0.0 7.7 27.9 149
15/01/2020 5:00 5.2 69 0.0 0 0.0 9.7 34.8 146
15/01/2020 5:10 5.2 70 0.0 0 0.0 8.2 29.7 147
15/01/2020 5:20 5.2 69 0.0 0 0.0 8.6 30.9 151
15/01/2020 5:30 5.2 70 0.0 0 0.0 7.8 27.9 153
15/01/2020 5:40 5.1 70 0.0 0 0.0 7.7 27.7 148
15/01/2020 5:50 5.3 70 0.0 0 0.0 8.3 29.8 146
15/01/2020 6:00 5.3 70 0.0 0 0.0 6.5 23.4 156
15/01/2020 6:10 5.3 70 0.0 0 0.0 7.9 28.5 152
15/01/2020 6:20 5.2 70 0.0 0 0.0 8.0 28.8 149
15/01/2020 6:30 5.5 70 0.0 0 0.0 7.6 27.4 145
15/01/2020 6:40 5.6 70 0.0 0 0.0 7.9 28.3 147
15/01/2020 6:50 5.7 70 0.0 0 0.0 6.4 22.9 153
15/01/2020 7:00 5.7 70 0.0 0 0.0 7.8 28.0 152
15/01/2020 7:10 5.8 70 0.0 0 0.0 9.4 33.8 150
15/01/2020 7:20 5.8 71 0.0 0 0.0 8.1 29.0 150
15/01/2020 7:30 6.0 71 0.0 0 0.0 9.3 33.6 147
15/01/2020 7:40 6.1 71 0.3 0 0.0 8.9 31.9 149
15/01/2020 7:50 6.2 71 25.7 50 0.0 8.8 31.7 145
15/01/2020 8:00 6.4 71 37.9 600 0.0 7.9 28.3 155
15/01/2020 8:10 6.5 70 45.8 600 0.0 9.1 32.7 154
15/01/2020 8:20 6.6 70 42.2 68 0.0 9.9 35.7 154
15/01/2020 8:30 6.7 70 43.6 0 0.0 9.4 33.7 155
15/01/2020 8:40 6.9 70 44.8 0 0.0 10.3 37.1 152
15/01/2020 8:50 7.0 69 42.9 0 0.0 9.7 35.0 151
15/01/2020 9:00 7.1 69 41.3 0 0.0 9.6 34.4 153
15/01/2020 9:10 7.1 69 37.8 0 0.0 9.3 33.4 154
15/01/2020 9:20 7.2 69 43.9 0 0.0 9.7 35.0 155
15/01/2020 9:30 7.4 68 69.5 0 0.0 10.9 39.1 160
15/01/2020 9:40 7.7 67 71.7 0 0.0 11.1 39.9 155
15/01/2020 9:50 7.6 66 84.3 0 0.0 10.3 37.0 150
15/01/2020 10:00 7.7 65 100.6 0 0.0 10.0 35.9 151
15/01/2020 10:10 7.8 65 103.0 0 0.0 10.6 38.3 154
15/01/2020 10:20 7.9 64 97.8 0 0.0 11.3 40.5 152
15/01/2020 10:30 7.9 64 102.2 0 0.0 9.2 33.1 154
15/01/2020 10:40 8.2 63 107.3 0 0.0 10.4 37.5 157
15/01/2020 10:50 8.4 63 122.1 0 0.0 8.3 29.9 156
15/01/2020 11:00 8.3 63 144.3 0 0.0 9.2 33.1 153
15/01/2020 11:10 8.4 64 173.8 0 0.0 8.5 30.5 158
15/01/2020 11:20 8.5 63 193.4 0 0.0 7.7 27.7 156
15/01/2020 11:30 8.9 63 206.1 0 0.0 7.2 25.8 165
15/01/2020 11:40 9.1 63 253.9 314 0.0 7.7 27.5 164
15/01/2020 11:50 9.6 61 301.8 600 0.0 8.5 30.5 160
15/01/2020 12:00 9.4 61 259.5 576 0.0 7.0 25.2 165
15/01/2020 12:10 9.7 62 216.5 18 0.0 6.1 21.8 178
15/01/2020 12:20 9.4 62 216.2 0 0.0 6.2 22.2 164
15/01/2020 12:30 9.4 62 184.9 0 0.0 5.8 20.8 159
15/01/2020 12:40 9.4 62 159.4 0 0.0 8.0 28.6 151
15/01/2020 12:50 9.1 63 125.0 0 0.0 7.4 26.6 154
15/01/2020 13:00 9.2 63 112.9 0 0.0 5.6 20.2 163
15/01/2020 13:10 9.2 64 122.0 0 0.0 4.3 15.5 177
15/01/2020 13:20 9.2 64 118.1 0 0.0 4.0 14.3 180
15/01/2020 13:30 9.3 65 125.8 0 0.0 4.9 17.6 185
15/01/2020 13:40 9.3 64 162.1 0 0.0 5.7 20.6 187
15/01/2020 13:50 9.6 64 180.5 0 0.0 4.6 16.6 179
15/01/2020 14:00 9.9 63 164.5 0 0.0 5.3 19.0 181
15/01/2020 14:10 9.8 63 203.5 248 0.0 4.8 17.2 177
15/01/2020 14:20 10.4 62 216.4 424 0.0 4.3 15.5 178
15/01/2020 14:30 10.7 61 337.2 600 0.0 3.9 14.0 175
15/01/2020 14:40 12.1 57 361.9 600 0.0 4.6 16.4 180
15/01/2020 14:50 11.5 58 240.6 566 0.0 5.4 19.5 191
15/01/2020 15:00 10.7 60 107.0 0 0.0 4.8 17.4 193
15/01/2020 15:10 10.1 62 85.3 0 0.0 4.8 17.3 188
15/01/2020 15:20 10.0 63 67.9 0 0.0 3.8 13.5 167
15/01/2020 15:30 10.0 63 61.5 0 0.0 4.0 14.4 170
15/01/2020 15:40 9.8 63 71.5 0 0.0 4.2 15.2 168
15/01/2020 15:50 9.7 63 77.4 0 0.0 4.8 17.3 170
15/01/2020 16:00 9.9 63 75.0 2 0.0 3.6 12.9 179
15/01/2020 16:10 10.0 63 81.7 600 0.0 3.8 13.7 169
15/01/2020 16:20 10.1 62 66.3 600 0.0 2.7 9.8 178
15/01/2020 16:30 10.2 62 52.3 600 0.0 1.4 5.0 191
15/01/2020 16:40 9.8 64 42.5 600 0.0 2.5 9.1 73
15/01/2020 16:50 9.6 65 19.7 74 0.0 1.6 5.8 166
15/01/2020 17:00 8.8 68 0.0 0 0.0 1.7 5.9 224
15/01/2020 17:10 8.2 71 0.0 0 0.0 2.1 7.5 257
15/01/2020 17:20 7.9 75 0.0 0 0.0 2.8 10.2 249
15/01/2020 17:30 7.3 79 0.0 0 0.0 2.2 7.8 212
15/01/2020 17:40 7.5 76 0.0 0 0.0 1.5 5.3 259
15/01/2020 17:50 7.3 78 0.0 0 0.0 2.1 7.6 224
15/01/2020 18:00 7.2 78 0.0 0 0.0 2.4 8.5 242
15/01/2020 18:10 6.6 81 0.0 0 0.0 3.0 10.9 212
15/01/2020 18:20 6.7 79 0.0 0 0.0 2.6 9.5 151
15/01/2020 18:30 6.6 80 0.0 0 0.0 2.6 9.4 354
15/01/2020 18:40 6.7 79 0.0 0 0.0 1.4 4.9 167
15/01/2020 18:50 7.1 77 0.0 0 0.0 1.8 6.3 255
15/01/2020 19:00 6.5 79 0.0 0 0.0 1.1 3.9 213
15/01/2020 19:10 6.5 78 0.0 0 0.0 1.8 6.5 290
15/01/2020 19:20 6.5 79 0.0 0 0.0 2.4 8.5 241
15/01/2020 19:30 6.0 81 0.0 0 0.0 2.6 9.4 243
15/01/2020 19:40 6.2 79 0.0 0 0.0 2.6 9.4 222
15/01/2020 19:50 6.3 79 0.0 0 0.0 1.5 5.5 130
15/01/2020 20:00 5.6 81 0.0 0 0.0 1.5 5.2 342
15/01/2020 20:10 5.6 81 0.0 0 0.0 2.2 8.0 248
15/01/2020 20:20 5.1 83 0.0 0 0.0 2.6 9.5 216
15/01/2020 20:30 5.1 84 0.0 0 0.0 3.2 11.6 232
15/01/2020 20:40 4.7 85 0.0 0 0.0 2.7 9.7 233
15/01/2020 20:50 4.7 85 0.0 0 0.0 3.0 10.7 229
15/01/2020 21:00 4.9 84 0.0 0 0.0 3.0 10.9 230
15/01/2020 21:10 5.4 82 0.0 0 0.0 2.9 10.4 231
15/01/2020 21:20 6.0 80 0.0 0 0.0 2.9 10.6 166
15/01/2020 21:30 7.8 74 0.0 0 0.0 1.1 3.9 53
15/01/2020 21:40 7.3 74 0.0 0 0.0 1.6 5.9 16
15/01/2020 21:50 5.8 79 0.0 0 0.0 1.8 6.3 34
15/01/2020 22:00 5.9 80 0.0 0 0.0 0.9 3.2 29
15/01/2020 22:10 6.2 78 0.0 0 0.0 1.0 3.4 81
15/01/2020 22:20 6.4 79 0.0 0 0.0 1.3 4.8 196
15/01/2020 22:30 6.9 77 0.0 0 0.0 3.0 10.9 132
15/01/2020 22:40 6.9 76 0.0 0 0.0 3.9 14.0 213
15/01/2020 22:50 5.3 83 0.0 0 0.0 3.5 12.7 246
15/01/2020 23:00 5.3 82 0.0 0 0.0 3.4 12.1 251
15/01/2020 23:10 3.9 87 0.0 0 0.0 4.2 15.2 245
15/01/2020 23:20 3.3 90 0.0 0 0.0 4.3 15.5 256
15/01/2020 23:30 4.1 89 0.0 0 0.0 4.3 15.3 256
15/01/2020 23:40 4.1 89 0.0 0 0.0 4.6 16.5 242
15/01/2020 23:50 3.9 89 0.0 0 0.0 4.3 15.3 220
Anterior Página 1 de 1 Siguiente

NOTA: Tipo de datos según el color:
   - Valores diarios o 10 minutos correctos
   - Valores diarios calculados a partir de un número de datos 10 minutos menor que 144 y mayor que 120, o de un número de datos semihorarios menor que 48 y mayor que 40 (caso de las estaciones de INTIA y del Ministerio)
   - Valores diez minutos estimados


Contacto        Enlaces        Aviso legal